Time;durP1;ratioP1;P1;durP2;ratioP2;P2;SDS_P1;SDS_P2;PMS_P1;PMS_P2;Temp;Humidity;BMP_temperature;BMP_pressure;BME280_temperature;BME280_humidity;BME280_pressure;Samples;Min_cycle;Max_cycle;Signal;HPM_P1;HPM_P2
2021/12/24 00:00:42;;;;;;;;;;;5.80;99.90;;;;;;5111368;28;19977;-60
2021/12/24 00:03:08;;;;;;;;;;;5.80;99.90;;;;;;5112581;28;19915;-60
2021/12/24 00:05:34;;;;;;;;;;;5.90;99.90;;;;;;5112590;28;19922;-60
2021/12/24 00:08:00;;;;;;;;;;;5.90;99.90;;;;;;5114783;28;19920;-60
2021/12/24 00:10:26;;;;;;;;;;;5.80;99.90;;;;;;5116779;28;19922;-60
2021/12/24 00:12:59;;;;;;;;;;;5.90;99.90;;;;;;5116487;28;19976;-60
2021/12/24 00:18:15;;;;;;;;;;;5.90;99.90;;;;;;5116377;28;19962;-59
2021/12/24 00:36:24;;;;;;;;;;;6.00;99.90;;;;;;5116039;27;20369;-52
2021/12/24 00:38:51;;;;;;;;;;;6.00;99.90;;;;;;5116050;28;20018;-48
2021/12/24 00:41:16;;;;;;;;;;;6.10;99.90;;;;;;5116195;28;19916;-51
2021/12/24 00:43:42;;;;;;;;;;;6.00;99.90;;;;;;5116046;28;20410;-49
2021/12/24 00:46:07;;;;;;;;;;;6.00;99.90;;;;;;5116122;28;19915;-51
2021/12/24 00:48:33;;;;;;;;;;;6.10;99.90;;;;;;5116023;27;19920;-51
2021/12/24 00:56:05;;;;;;;;;;;6.10;99.90;;;;;;5115756;28;19923;-51
2021/12/24 00:58:31;;;;;;;;;;;6.10;99.90;;;;;;5115984;28;19960;-51
2021/12/24 01:00:57;;;;;;;;;;;6.10;99.90;;;;;;5115900;28;19960;-53
2021/12/24 01:03:22;;;;;;;;;;;6.20;99.90;;;;;;5115802;28;19975;-52
2021/12/24 01:05:48;;;;;;;;;;;6.20;99.90;;;;;;5115689;28;20398;-49
2021/12/24 01:08:14;;;;;;;;;;;6.10;99.90;;;;;;5115528;28;19924;-52
2021/12/24 01:10:41;;;;;;;;;;;6.20;99.90;;;;;;5115589;27;19915;-50
2021/12/24 01:13:07;;;;;;;;;;;6.20;99.90;;;;;;5115861;28;19922;-50
2021/12/24 01:15:37;;;;;;;;;;;6.20;99.90;;;;;;5115523;28;19916;-48
2021/12/24 01:18:14;;;;;;;;;;;6.20;99.90;;;;;;5115099;28;19916;-51
2021/12/24 01:20:45;;;;;;;;;;;6.30;99.90;;;;;;5115257;28;20303;-50
2021/12/24 01:26:20;;;;;;;;;;;6.30;99.90;;;;;;5115535;27;19916;-52
2021/12/24 01:29:05;;;;;;;;;;;6.30;99.90;;;;;;5115118;28;19953;-51
2021/12/24 01:44:59;;;;;;;;;;;6.60;99.90;;;;;;5115182;28;19915;-49
2021/12/24 01:47:26;;;;;;;;;;;6.50;99.90;;;;;;5114783;28;20029;-49
2021/12/24 01:49:51;;;;;;;;;;;6.50;99.90;;;;;;5114916;28;19922;-53
2021/12/24 01:52:17;;;;;;;;;;;6.50;99.90;;;;;;5114618;28;19916;-53
2021/12/24 01:54:43;;;;;;;;;;;6.50;99.90;;;;;;5114979;28;19941;-51
2021/12/24 01:57:10;;;;;;;;;;;6.50;99.90;;;;;;5114815;28;20006;-52
2021/12/24 01:59:36;;;;;;;;;;;6.60;99.90;;;;;;5114590;28;19915;-52
2021/12/24 02:02:02;;;;;;;;;;;6.60;99.90;;;;;;5114593;28;19922;-53
2021/12/24 02:04:28;;;;;;;;;;;6.60;99.90;;;;;;5114988;28;20383;-53
2021/12/24 02:06:54;;;;;;;;;;;6.60;99.90;;;;;;5114501;28;20043;-53
2021/12/24 02:09:19;;;;;;;;;;;6.70;99.90;;;;;;5114811;28;19959;-52
2021/12/24 02:11:45;;;;;;;;;;;6.70;99.90;;;;;;5114399;28;20414;-50
2021/12/24 02:14:12;;;;;;;;;;;6.70;99.90;;;;;;5114299;28;19920;-52
2021/12/24 02:30:00;;;;;;;;;;;6.80;99.90;;;;;;5113295;28;19919;-52
2021/12/24 02:32:26;;;;;;;;;;;6.80;99.90;;;;;;5114346;28;19927;-52
2021/12/24 02:34:52;;;;;;;;;;;6.80;99.90;;;;;;5113662;28;20255;-51
2021/12/24 02:37:18;;;;;;;;;;;6.80;99.90;;;;;;5113789;28;20024;-49
2021/12/24 02:39:43;;;;;;;;;;;6.90;99.90;;;;;;5113815;28;19972;-51
2021/12/24 02:42:11;;;;;;;;;;;6.90;99.90;;;;;;5113850;28;19915;-52
2021/12/24 02:44:36;;;;;;;;;;;6.90;99.90;;;;;;5114033;28;19916;-51
2021/12/24 02:54:56;;;;;;;;;;;6.90;99.90;;;;;;5113902;28;19916;-52
2021/12/24 02:57:26;;;;;;;;;;;6.90;99.90;;;;;;5113666;28;19922;-53
2021/12/24 03:00:01;;;;;;;;;;;7.00;99.90;;;;;;5113365;28;20490;-51
2021/12/24 03:02:27;;;;;;;;;;;7.00;99.90;;;;;;5113680;28;19916;-51
2021/12/24 03:04:53;;;;;;;;;;;7.10;99.90;;;;;;5113366;28;19916;-52
2021/12/24 03:07:18;;;;;;;;;;;7.10;99.90;;;;;;5113241;28;19919;-52
2021/12/24 03:09:44;;;;;;;;;;;7.10;99.90;;;;;;5113570;28;19923;-50
2021/12/24 03:12:09;;;;;;;;;;;7.10;99.90;;;;;;5113193;28;19969;-51
2021/12/24 03:14:35;;;;;;;;;;;7.10;99.90;;;;;;5113349;28;20020;-52
2021/12/24 03:17:06;;;;;;;;;;;7.10;99.90;;;;;;5113187;28;20350;-53
2021/12/24 03:19:33;;;;;;;;;;;7.10;99.90;;;;;;5113138;28;19962;-51
2021/12/24 03:22:10;;;;;;;;;;;7.10;99.90;;;;;;5112975;28;20022;-52
2021/12/24 03:24:36;;;;;;;;;;;7.20;99.90;;;;;;5113503;28;19920;-50
2021/12/24 03:27:02;;;;;;;;;;;7.20;99.90;;;;;;5113227;28;19920;-50
2021/12/24 03:29:27;;;;;;;;;;;7.30;99.90;;;;;;5113283;28;19938;-51
2021/12/24 03:31:53;;;;;;;;;;;7.20;99.90;;;;;;5113086;28;20372;-51
2021/12/24 03:34:20;;;;;;;;;;;7.30;99.90;;;;;;5112839;28;19915;-49
2021/12/24 03:36:45;;;;;;;;;;;7.30;99.90;;;;;;5113257;28;19954;-52
2021/12/24 03:39:11;;;;;;;;;;;7.30;99.90;;;;;;5113203;28;19951;-53
2021/12/24 03:41:37;;;;;;;;;;;7.40;99.90;;;;;;5114863;28;20364;-51
2021/12/24 03:44:03;;;;;;;;;;;7.40;99.90;;;;;;5117271;28;19916;-52
2021/12/24 03:46:50;;;;;;;;;;;7.40;99.90;;;;;;5117042;28;20280;-53
2021/12/24 03:49:21;;;;;;;;;;;7.50;99.90;;;;;;5117056;28;19970;-52
2021/12/24 03:51:57;;;;;;;;;;;7.60;99.90;;;;;;5117222;28;19916;-52
2021/12/24 03:57:06;;;;;;;;;;;7.50;99.90;;;;;;5117094;28;20045;-51
2021/12/24 03:59:32;;;;;;;;;;;7.60;99.90;;;;;;5117113;28;20006;-50
2021/12/24 04:01:57;;;;;;;;;;;7.60;99.90;;;;;;5117031;28;19916;-52
2021/12/24 04:04:23;;;;;;;;;;;7.60;99.90;;;;;;5116932;28;19919;-50
2021/12/24 04:06:48;;;;;;;;;;;7.60;99.90;;;;;;5116774;28;19963;-52
2021/12/24 04:09:14;;;;;;;;;;;7.80;99.90;;;;;;5115724;28;19915;-53
2021/12/24 04:11:40;;;;;;;;;;;7.70;99.90;;;;;;5116548;28;19916;-50
2021/12/24 04:14:06;;;;;;;;;;;7.70;99.90;;;;;;5116842;28;20267;-51
2021/12/24 04:16:32;;;;;;;;;;;7.70;99.90;;;;;;5116805;28;19915;-52
2021/12/24 04:26:51;;;;;;;;;;;7.80;99.90;;;;;;5116469;28;19920;-51
2021/12/24 04:29:16;;;;;;;;;;;7.80;99.90;;;;;;5116349;28;20407;-52
2021/12/24 04:31:54;;;;;;;;;;;7.90;99.90;;;;;;5116694;28;20405;-51
2021/12/24 04:34:25;;;;;;;;;;;7.90;99.90;;;;;;5116103;28;19916;-52
2021/12/24 05:03:44;;;;;;;;;;;8.10;99.90;;;;;;5115713;28;19957;-53
2021/12/24 05:06:26;;;;;;;;;;;8.10;99.90;;;;;;5115540;28;20002;-52
2021/12/24 05:08:55;;;;;;;;;;;8.20;99.90;;;;;;5115719;28;20323;-53
2021/12/24 05:11:21;;;;;;;;;;;8.10;99.90;;;;;;5115746;28;19916;-53
2021/12/24 05:13:47;;;;;;;;;;;8.20;99.90;;;;;;5115666;28;20311;-52
2021/12/24 05:21:32;;;;;;;;;;;8.20;99.90;;;;;;5115513;28;19995;-52
2021/12/24 05:21:49;;;;;;;;;;;8.20;99.90;;;;;;5114982;28;19926;-52
2021/12/24 05:24:16;;;;;;;;;;;8.20;99.90;;;;;;5115300;28;19915;-52
2021/12/24 05:26:43;;;;;;;;;;;8.20;99.90;;;;;;5115075;28;20361;-53
2021/12/24 05:29:09;;;;;;;;;;;8.20;99.90;;;;;;5115160;28;20366;-53
2021/12/24 05:31:35;;;;;;;;;;;8.20;99.90;;;;;;5115270;28;20003;-53
2021/12/24 05:34:01;;;;;;;;;;;8.20;99.90;;;;;;5115272;28;19923;-53
2021/12/24 05:36:27;;;;;;;;;;;8.20;99.90;;;;;;5115047;28;19970;-52
2021/12/24 05:38:52;;;;;;;;;;;8.20;99.90;;;;;;5115091;27;19966;-53
2021/12/24 05:41:18;;;;;;;;;;;8.20;99.90;;;;;;5114890;28;19969;-53
2021/12/24 05:43:44;;;;;;;;;;;8.20;99.90;;;;;;5114967;28;20006;-53
2021/12/24 05:46:09;;;;;;;;;;;8.20;99.90;;;;;;5115014;28;19922;-50
2021/12/24 05:48:35;;;;;;;;;;;8.20;99.90;;;;;;5114901;28;19927;-52
2021/12/24 05:51:00;;;;;;;;;;;8.20;99.90;;;;;;5114868;28;19916;-50
2021/12/24 05:53:26;;;;;;;;;;;8.20;99.90;;;;;;5114720;28;19968;-53
2021/12/24 05:55:52;;;;;;;;;;;8.30;99.90;;;;;;5114597;28;19960;-53
2021/12/24 05:58:18;;;;;;;;;;;8.20;99.90;;;;;;5114573;28;20000;-51
2021/12/24 06:00:43;;;;;;;;;;;8.30;99.90;;;;;;5114726;28;19949;-53
2021/12/24 06:03:09;;;;;;;;;;;8.30;99.90;;;;;;5114876;28;19977;-51
2021/12/24 06:05:35;;;;;;;;;;;8.30;99.90;;;;;;5114590;28;19916;-52
2021/12/24 06:08:01;;;;;;;;;;;8.30;99.90;;;;;;5114256;28;19926;-54
2021/12/24 06:10:27;;;;;;;;;;;8.20;99.90;;;;;;5114404;28;19941;-52
2021/12/24 06:12:52;;;;;;;;;;;8.30;99.90;;;;;;5114138;28;20337;-52
2021/12/24 06:15:23;;;;;;;;;;;8.30;99.90;;;;;;5113240;28;19916;-53
2021/12/24 06:17:51;;;;;;;;;;;8.30;99.90;;;;;;5112829;28;19916;-54
2021/12/24 06:20:17;;;;;;;;;;;8.30;99.90;;;;;;5113056;28;19922;-52
2021/12/24 06:22:42;;;;;;;;;;;8.30;99.90;;;;;;5114194;28;20006;-53
2021/12/24 06:25:08;;;;;;;;;;;8.30;99.90;;;;;;5114058;28;19915;-51
2021/12/24 06:27:34;;;;;;;;;;;8.30;99.90;;;;;;5114257;28;19926;-52
2021/12/24 06:29:59;;;;;;;;;;;8.30;99.90;;;;;;5114212;28;19968;-53
2021/12/24 06:32:25;;;;;;;;;;;8.30;99.90;;;;;;5114052;28;19969;-50
2021/12/24 06:34:51;;;;;;;;;;;8.30;99.90;;;;;;5114008;28;19920;-53
2021/12/24 06:37:16;;;;;;;;;;;8.30;99.90;;;;;;5113695;28;19916;-53
2021/12/24 06:39:42;;;;;;;;;;;8.30;99.90;;;;;;5113597;28;19915;-52
2021/12/24 06:42:08;;;;;;;;;;;8.30;99.90;;;;;;5113578;28;19968;-53
2021/12/24 06:44:33;;;;;;;;;;;8.30;99.90;;;;;;5113777;28;19920;-52
2021/12/24 06:46:59;;;;;;;;;;;8.30;99.90;;;;;;5113505;28;19919;-52
2021/12/24 06:49:25;;;;;;;;;;;8.20;99.90;;;;;;5113815;28;20356;-52
2021/12/24 06:51:51;;;;;;;;;;;8.20;99.90;;;;;;5113719;28;19955;-52
2021/12/24 06:54:17;;;;;;;;;;;8.30;99.90;;;;;;5113405;28;19939;-53
2021/12/24 06:56:43;;;;;;;;;;;8.30;99.90;;;;;;5113680;28;20289;-53
2021/12/24 06:59:09;;;;;;;;;;;8.20;99.90;;;;;;5113505;28;20763;-52
2021/12/24 07:01:35;;;;;;;;;;;8.30;99.90;;;;;;5113497;28;19952;-53
2021/12/24 07:04:00;;;;;;;;;;;8.30;99.90;;;;;;5113497;28;19915;-53
2021/12/24 07:06:27;;;;;;;;;;;8.30;99.90;;;;;;5113259;28;19923;-51
2021/12/24 07:08:52;;;;;;;;;;;8.30;99.90;;;;;;5113236;28;20289;-52
2021/12/24 07:11:18;;;;;;;;;;;8.30;99.90;;;;;;5113323;28;19916;-53
2021/12/24 07:13:43;;;;;;;;;;;8.20;99.90;;;;;;5112855;28;19974;-54
2021/12/24 07:16:09;;;;;;;;;;;8.20;99.90;;;;;;5112487;28;20327;-53
2021/12/24 07:18:36;;;;;;;;;;;8.20;99.90;;;;;;5113156;28;19969;-53
2021/12/24 07:21:02;;;;;;;;;;;8.30;99.90;;;;;;5113178;28;19916;-53
2021/12/24 07:23:27;;;;;;;;;;;8.20;99.90;;;;;;5112796;28;20284;-52
2021/12/24 07:25:53;;;;;;;;;;;8.20;99.90;;;;;;5113198;28;19923;-51
2021/12/24 07:28:18;;;;;;;;;;;8.20;99.90;;;;;;5113112;28;19919;-52
2021/12/24 07:30:44;;;;;;;;;;;8.20;99.90;;;;;;5112918;28;19923;-53
2021/12/24 07:33:14;;;;;;;;;;;8.20;99.90;;;;;;5112933;28;19963;-52
2021/12/24 07:35:43;;;;;;;;;;;8.20;99.90;;;;;;5112844;28;19999;-53
2021/12/24 07:38:09;;;;;;;;;;;8.20;99.90;;;;;;5112853;28;20357;-53
2021/12/24 07:40:35;;;;;;;;;;;8.20;99.90;;;;;;5112905;28;20277;-54
2021/12/24 07:43:01;;;;;;;;;;;8.20;99.90;;;;;;5113054;28;19915;-54
2021/12/24 07:45:26;;;;;;;;;;;8.10;99.90;;;;;;5112804;28;19922;-53
2021/12/24 07:48:07;;;;;;;;;;;8.10;99.90;;;;;;5112924;28;20269;-52
2021/12/24 07:52:59;;;;;;;;;;;8.10;99.90;;;;;;5112971;28;20010;-53
2021/12/24 07:55:24;;;;;;;;;;;8.10;99.90;;;;;;5112806;28;19923;-53
2021/12/24 07:57:52;;;;;;;;;;;8.10;99.90;;;;;;5112942;28;19923;-53
2021/12/24 08:00:19;;;;;;;;;;;8.10;99.90;;;;;;5112812;28;20373;-52
2021/12/24 08:02:45;;;;;;;;;;;8.10;99.90;;;;;;5112793;28;20357;-52
2021/12/24 08:05:13;;;;;;;;;;;8.00;99.90;;;;;;5112498;28;20007;-53
2021/12/24 08:07:39;;;;;;;;;;;8.00;99.90;;;;;;5112769;28;19920;-52
2021/12/24 08:10:05;;;;;;;;;;;8.10;99.90;;;;;;5112639;28;20277;-52
2021/12/24 08:12:30;;;;;;;;;;;8.10;99.90;;;;;;5111125;28;19915;-52
2021/12/24 08:14:56;;;;;;;;;;;8.10;99.90;;;;;;5112588;28;20333;-52
2021/12/24 08:17:21;;;;;;;;;;;8.10;99.90;;;;;;5112450;28;20375;-53
2021/12/24 08:19:47;;;;;;;;;;;8.10;99.90;;;;;;5112302;28;19916;-53
2021/12/24 08:22:12;;;;;;;;;;;8.00;99.90;;;;;;5112478;28;20285;-54
2021/12/24 08:24:39;;;;;;;;;;;8.10;99.90;;;;;;5112328;28;19916;-53
2021/12/24 08:27:05;;;;;;;;;;;8.10;99.90;;;;;;5112344;28;19926;-51
2021/12/24 08:29:30;;;;;;;;;;;8.10;99.90;;;;;;5115538;28;19916;-53
2021/12/24 08:31:56;;;;;;;;;;;8.10;99.90;;;;;;5116358;28;20269;-52
2021/12/24 08:34:22;;;;;;;;;;;8.00;99.90;;;;;;5116466;28;19919;-52
2021/12/24 08:36:49;;;;;;;;;;;8.00;99.90;;;;;;5116402;27;20697;-51
2021/12/24 08:39:17;;;;;;;;;;;8.10;99.90;;;;;;5115115;28;19915;-52
2021/12/24 08:41:43;;;;;;;;;;;8.00;99.90;;;;;;5116374;28;20104;-50
2021/12/24 08:44:08;;;;;;;;;;;8.00;99.90;;;;;;5116213;28;20797;-52
2021/12/24 08:46:36;;;;;;;;;;;8.00;99.90;;;;;;5116024;28;20005;-51
2021/12/24 08:49:02;;;;;;;;;;;8.00;99.90;;;;;;5116052;28;19915;-53
2021/12/24 08:51:28;;;;;;;;;;;8.10;99.90;;;;;;5116134;28;19915;-52
2021/12/24 08:53:53;;;;;;;;;;;8.10;99.90;;;;;;5116002;28;20258;-51
2021/12/24 08:56:21;;;;;;;;;;;8.10;99.90;;;;;;5115920;28;19923;-50
2021/12/24 08:58:46;;;;;;;;;;;8.10;99.90;;;;;;5115614;28;20369;-52
2021/12/24 09:01:12;;;;;;;;;;;8.10;99.90;;;;;;5115815;28;19930;-50
2021/12/24 09:03:37;;;;;;;;;;;8.10;99.90;;;;;;5115647;28;19934;-51
2021/12/24 09:06:03;;;;;;;;;;;8.10;99.90;;;;;;5114541;28;20361;-52
2021/12/24 09:08:28;;;;;;;;;;;8.10;99.90;;;;;;5114175;28;20386;-50
2021/12/24 09:10:54;;;;;;;;;;;8.10;99.90;;;;;;5115613;28;20266;-51
2021/12/24 09:13:20;;;;;;;;;;;8.10;99.90;;;;;;5115431;28;19923;-51
2021/12/24 09:15:45;;;;;;;;;;;8.10;99.90;;;;;;5115323;28;19915;-51
2021/12/24 09:18:11;;;;;;;;;;;8.10;99.90;;;;;;5115302;28;19916;-51
2021/12/24 09:20:40;;;;;;;;;;;8.00;99.90;;;;;;5115658;28;19919;-51
2021/12/24 09:23:06;;;;;;;;;;;8.00;99.90;;;;;;5115112;28;20270;-52
2021/12/24 09:25:32;;;;;;;;;;;8.00;99.90;;;;;;5115354;28;20006;-50
2021/12/24 09:27:58;;;;;;;;;;;8.00;99.90;;;;;;5115152;28;20003;-51
2021/12/24 09:30:25;;;;;;;;;;;8.00;99.90;;;;;;5115349;28;19916;-52
2021/12/24 09:32:51;;;;;;;;;;;8.00;99.90;;;;;;5115006;28;19963;-51
2021/12/24 09:35:18;;;;;;;;;;;8.00;99.90;;;;;;5114993;28;20266;-50
2021/12/24 09:37:44;;;;;;;;;;;8.00;99.90;;;;;;5115012;28;19919;-50
2021/12/24 09:40:11;;;;;;;;;;;8.10;99.90;;;;;;5114965;28;19935;-50
2021/12/24 09:42:36;;;;;;;;;;;8.00;99.90;;;;;;5114953;27;20363;-49
2021/12/24 09:45:03;;;;;;;;;;;8.00;99.90;;;;;;5114904;28;19970;-50
2021/12/24 09:47:29;;;;;;;;;;;7.80;99.90;;;;;;5114942;28;19971;-49
2021/12/24 09:49:55;;;;;;;;;;;7.70;99.90;;;;;;5114714;28;20059;-48
2021/12/24 09:52:22;;;;;;;;;;;7.50;99.90;;;;;;5114736;28;19915;-51
2021/12/24 09:54:48;;;;;;;;;;;7.40;99.90;;;;;;5113348;28;19921;-51
2021/12/24 09:57:14;;;;;;;;;;;7.30;99.90;;;;;;5114828;28;19999;-47
2021/12/24 09:59:40;;;;;;;;;;;7.20;99.90;;;;;;5114507;28;19919;-48
2021/12/24 10:02:14;;;;;;;;;;;7.20;99.90;;;;;;5114706;28;19938;-47
2021/12/24 10:04:41;;;;;;;;;;;7.00;99.90;;;;;;5114898;28;19997;-51
2021/12/24 10:07:08;;;;;;;;;;;7.00;99.90;;;;;;5113239;28;19920;-49
2021/12/24 10:09:33;;;;;;;;;;;7.00;99.90;;;;;;5114803;28;20030;-49
2021/12/24 10:12:19;;;;;;;;;;;6.90;99.90;;;;;;5113330;28;19971;-47
2021/12/24 10:14:52;;;;;;;;;;;6.80;99.90;;;;;;5113909;28;19955;-49
2021/12/24 10:17:18;;;;;;;;;;;6.90;99.90;;;;;;5114236;28;20002;-48
2021/12/24 10:19:53;;;;;;;;;;;6.80;99.90;;;;;;5114216;28;19919;-50
2021/12/24 10:22:19;;;;;;;;;;;6.80;99.90;;;;;;5114098;28;19951;-46
2021/12/24 10:24:58;;;;;;;;;;;6.80;99.90;;;;;;5114063;28;19961;-48
2021/12/24 10:27:32;;;;;;;;;;;6.80;99.90;;;;;;5114343;28;19923;-48
2021/12/24 10:29:58;;;;;;;;;;;6.70;99.90;;;;;;5113911;28;19968;-48
2021/12/24 10:32:24;;;;;;;;;;;6.80;99.90;;;;;;5114099;28;19954;-46
2021/12/24 10:34:50;;;;;;;;;;;6.70;99.90;;;;;;5113790;28;19958;-48
2021/12/24 10:37:23;;;;;;;;;;;6.80;99.90;;;;;;5113886;28;20292;-47
2021/12/24 10:39:50;;;;;;;;;;;6.70;99.90;;;;;;5113996;28;19960;-47
2021/12/24 10:42:21;;;;;;;;;;;6.60;99.90;;;;;;5113759;28;20270;-46
2021/12/24 10:44:48;;;;;;;;;;;6.60;99.90;;;;;;5113956;28;19942;-47
2021/12/24 10:47:25;;;;;;;;;;;6.60;99.90;;;;;;5113562;28;20015;-46
2021/12/24 10:49:58;;;;;;;;;;;6.50;99.90;;;;;;5113708;28;20010;-49
2021/12/24 10:54:51;;;;;;;;;;;6.50;99.90;;;;;;5113797;28;19915;-47
2021/12/24 10:57:18;;;;;;;;;;;6.50;99.90;;;;;;5113691;28;19915;-49
2021/12/24 10:59:44;;;;;;;;;;;6.50;99.90;;;;;;5113515;28;19920;-49
2021/12/24 11:02:11;;;;;;;;;;;6.40;99.90;;;;;;5113408;28;19923;-48
2021/12/24 11:04:36;;;;;;;;;;;6.50;99.90;;;;;;5113563;28;19916;-50
2021/12/24 11:07:02;;;;;;;;;;;6.40;99.90;;;;;;5113540;28;20403;-47
2021/12/24 11:09:28;;;;;;;;;;;6.40;99.90;;;;;;5113373;28;19915;-49
2021/12/24 11:11:56;;;;;;;;;;;6.50;99.90;;;;;;5113355;28;19920;-48
2021/12/24 11:14:22;;;;;;;;;;;6.50;99.90;;;;;;5113490;28;19968;-46
2021/12/24 11:16:47;;;;;;;;;;;6.50;99.90;;;;;;5113184;28;19919;-51
2021/12/24 11:19:13;;;;;;;;;;;6.50;99.90;;;;;;5113476;28;19920;-47
2021/12/24 11:21:38;;;;;;;;;;;6.50;99.90;;;;;;5112342;28;19926;-51
2021/12/24 11:24:04;;;;;;;;;;;6.40;99.90;;;;;;5113082;28;20010;-47
2021/12/24 11:26:32;;;;;;;;;;;6.40;99.90;;;;;;5112967;28;19915;-48
2021/12/24 11:28:58;;;;;;;;;;;6.40;99.90;;;;;;5113062;28;20010;-52
2021/12/24 11:31:25;;;;;;;;;;;6.40;99.90;;;;;;5113348;28;19951;-48
2021/12/24 11:33:52;;;;;;;;;;;6.40;99.90;;;;;;5112847;28;20338;-49
2021/12/24 11:36:18;;;;;;;;;;;6.40;99.90;;;;;;5113092;28;19915;-50
2021/12/24 11:38:44;;;;;;;;;;;6.40;99.90;;;;;;5112943;28;20313;-48
2021/12/24 11:41:12;;;;;;;;;;;6.40;99.90;;;;;;5113145;28;19962;-49
2021/12/24 11:43:38;;;;;;;;;;;6.40;99.90;;;;;;5112818;28;19923;-49
2021/12/24 11:46:06;;;;;;;;;;;6.40;99.90;;;;;;5112685;28;20270;-50
2021/12/24 11:48:33;;;;;;;;;;;6.30;99.90;;;;;;5112814;28;19919;-49
2021/12/24 11:51:02;;;;;;;;;;;6.40;99.90;;;;;;5112784;28;19922;-51
2021/12/24 11:53:30;;;;;;;;;;;6.30;99.90;;;;;;5112703;28;19915;-51
2021/12/24 11:56:00;;;;;;;;;;;6.40;99.90;;;;;;5112712;28;19960;-47
2021/12/24 11:58:26;;;;;;;;;;;6.30;99.90;;;;;;5112655;28;20011;-50
2021/12/24 12:00:53;;;;;;;;;;;6.40;99.90;;;;;;5112907;28;20011;-47
2021/12/24 12:03:35;;;;;;;;;;;6.30;99.90;;;;;;5116073;28;19919;-47
2021/12/24 12:06:04;;;;;;;;;;;6.30;99.90;;;;;;5116773;28;20361;-51
2021/12/24 12:08:33;;;;;;;;;;;6.40;99.90;;;;;;5116727;28;20288;-48
2021/12/24 12:11:02;;;;;;;;;;;6.30;99.90;;;;;;5116792;28;19915;-48
2021/12/24 12:13:36;;;;;;;;;;;6.30;99.90;;;;;;5117055;28;20634;-46
2021/12/24 12:16:03;;;;;;;;;;;6.30;99.90;;;;;;5116790;28;19916;-47
2021/12/24 12:18:29;;;;;;;;;;;6.30;99.90;;;;;;5116635;28;19916;-47
2021/12/24 12:21:07;;;;;;;;;;;6.30;99.90;;;;;;5116469;28;19958;-50
2021/12/24 12:26:41;;;;;;;;;;;6.30;99.90;;;;;;5116674;28;20262;-48
2021/12/24 12:29:19;;;;;;;;;;;6.30;99.90;;;;;;5116309;28;19923;-50
2021/12/24 12:31:45;;;;;;;;;;;6.30;99.90;;;;;;5115996;28;20369;-48
2021/12/24 12:34:29;;;;;;;;;;;6.30;99.90;;;;;;5116415;28;19922;-50
2021/12/24 12:37:10;;;;;;;;;;;6.40;99.90;;;;;;5116447;28;19920;-47
2021/12/24 12:39:36;;;;;;;;;;;6.40;99.90;;;;;;5116139;28;20003;-47
2021/12/24 12:42:02;;;;;;;;;;;6.40;99.90;;;;;;5116080;27;19927;-47
2021/12/24 12:44:28;;;;;;;;;;;6.40;99.90;;;;;;5116018;28;20001;-47
2021/12/24 12:47:07;;;;;;;;;;;6.50;99.90;;;;;;5115790;27;20400;-46
2021/12/24 12:49:34;;;;;;;;;;;6.40;99.90;;;;;;5116045;28;19930;-47
2021/12/24 12:52:06;;;;;;;;;;;6.50;99.90;;;;;;5115830;28;19916;-46
2021/12/24 12:54:36;;;;;;;;;;;6.50;99.90;;;;;;5115999;28;19915;-46
2021/12/24 12:57:20;;;;;;;;;;;6.40;99.90;;;;;;5116221;28;19916;-46
2021/12/24 13:00:05;;;;;;;;;;;6.50;99.90;;;;;;5116053;28;20010;-48
2021/12/24 13:02:49;;;;;;;;;;;6.50;99.90;;;;;;5115839;27;19950;-47
2021/12/24 13:05:14;;;;;;;;;;;6.60;99.90;;;;;;5116106;28;19985;-48
2021/12/24 13:07:40;;;;;;;;;;;6.60;99.90;;;;;;5115900;28;20357;-47
2021/12/24 13:10:05;;;;;;;;;;;6.60;99.90;;;;;;5115683;28;19939;-49
2021/12/24 13:12:31;;;;;;;;;;;6.70;99.90;;;;;;5115653;28;19938;-48
2021/12/24 13:14:59;;;;;;;;;;;6.70;99.90;;;;;;5114963;28;19916;-48
2021/12/24 13:17:32;;;;;;;;;;;6.60;99.90;;;;;;5115415;28;19919;-48
2021/12/24 13:20:09;;;;;;;;;;;6.60;99.90;;;;;;5115554;28;19922;-50
2021/12/24 13:22:37;;;;;;;;;;;6.60;99.90;;;;;;5115149;28;19920;-48
2021/12/24 13:25:14;;;;;;;;;;;6.60;99.90;;;;;;5115170;28;19972;-48
2021/12/24 13:27:51;;;;;;;;;;;6.60;99.90;;;;;;5115389;27;19927;-49
2021/12/24 13:30:20;;;;;;;;;;;6.70;99.90;;;;;;5115290;28;19964;-47
2021/12/24 13:32:51;;;;;;;;;;;6.80;99.90;;;;;;5115273;28;19916;-46
2021/12/24 13:35:18;;;;;;;;;;;6.80;99.90;;;;;;5115335;28;19915;-47
2021/12/24 13:37:47;;;;;;;;;;;6.80;99.90;;;;;;5113868;28;19916;-46
2021/12/24 13:40:14;;;;;;;;;;;6.80;99.90;;;;;;5115270;28;19916;-48
2021/12/24 13:42:44;;;;;;;;;;;6.80;99.90;;;;;;5114894;28;19937;-50
2021/12/24 13:45:10;;;;;;;;;;;6.70;99.90;;;;;;5115159;28;20516;-47
2021/12/24 13:48:11;;;;;;;;;;;6.70;99.90;;;;;;5115160;28;19923;-47
2021/12/24 13:56:03;;;;;;;;;;;6.70;99.90;;;;;;5114908;28;19916;-48
2021/12/24 13:58:29;;;;;;;;;;;6.70;99.90;;;;;;5114811;28;20000;-50
2021/12/24 14:00:56;;;;;;;;;;;6.70;99.90;;;;;;5114762;28;19981;-48
2021/12/24 14:03:25;;;;;;;;;;;6.70;99.90;;;;;;5114835;28;19919;-47
2021/12/24 14:05:53;;;;;;;;;;;6.70;99.90;;;;;;5114736;28;19915;-46
2021/12/24 14:08:20;;;;;;;;;;;6.70;99.90;;;;;;5114335;28;20458;-48
2021/12/24 14:10:48;;;;;;;;;;;6.70;99.90;;;;;;5114638;28;19915;-51
2021/12/24 14:13:26;;;;;;;;;;;6.70;99.90;;;;;;5114230;28;19959;-48
2021/12/24 14:16:10;;;;;;;;;;;6.70;99.90;;;;;;5114358;28;20319;-51
2021/12/24 14:23:29;;;;;;;;;;;6.70;99.90;;;;;;5114110;28;19965;-51
2021/12/24 14:25:58;;;;;;;;;;;6.60;99.90;;;;;;5113171;28;19973;-46
2021/12/24 14:28:24;;;;;;;;;;;6.60;99.90;;;;;;5113944;27;19930;-47
2021/12/24 14:31:04;;;;;;;;;;;6.60;99.90;;;;;;5114334;27;19920;-49
2021/12/24 14:33:33;;;;;;;;;;;6.50;99.90;;;;;;5113798;28;20358;-48
2021/12/24 14:36:00;;;;;;;;;;;6.50;99.90;;;;;;5113782;28;20417;-47
2021/12/24 14:38:26;;;;;;;;;;;6.40;99.90;;;;;;5113855;28;19922;-46
2021/12/24 14:40:58;;;;;;;;;;;6.30;99.90;;;;;;5113843;28;19915;-47
2021/12/24 14:43:25;;;;;;;;;;;6.30;99.90;;;;;;5113780;28;20014;-48
2021/12/24 14:45:51;;;;;;;;;;;6.20;99.90;;;;;;5113866;28;20323;-48
2021/12/24 14:48:26;;;;;;;;;;;6.20;99.90;;;;;;5113890;28;19945;-48
2021/12/24 14:50:54;;;;;;;;;;;6.20;99.90;;;;;;5113645;28;19915;-50
2021/12/24 14:53:20;;;;;;;;;;;6.20;99.90;;;;;;5113642;28;19994;-47
2021/12/24 14:55:47;;;;;;;;;;;6.20;99.90;;;;;;5113603;28;20389;-49
2021/12/24 14:58:13;;;;;;;;;;;6.20;99.90;;;;;;5113867;28;19915;-47
2021/12/24 15:00:41;;;;;;;;;;;6.20;99.90;;;;;;5113438;28;20361;-47
2021/12/24 15:03:08;;;;;;;;;;;6.10;99.90;;;;;;5113487;28;19916;-49
2021/12/24 15:05:38;;;;;;;;;;;6.10;99.90;;;;;;5113439;28;20281;-46
2021/12/24 15:08:14;;;;;;;;;;;6.00;99.90;;;;;;5113595;28;19977;-48
2021/12/24 15:10:40;;;;;;;;;;;6.10;99.90;;;;;;5113175;28;20358;-47
2021/12/24 15:13:14;;;;;;;;;;;6.10;99.90;;;;;;5113599;28;19919;-48
2021/12/24 15:15:46;;;;;;;;;;;6.10;99.90;;;;;;5113267;28;19916;-49
2021/12/24 15:18:12;;;;;;;;;;;6.10;99.90;;;;;;5113280;28;19968;-49
2021/12/24 15:20:37;;;;;;;;;;;6.00;99.90;;;;;;5113306;28;19919;-51
2021/12/24 15:23:03;;;;;;;;;;;6.00;99.90;;;;;;5113030;28;20045;-49
2021/12/24 15:25:29;;;;;;;;;;;6.00;99.90;;;;;;5113346;28;19915;-49
2021/12/24 15:27:55;;;;;;;;;;;6.00;99.90;;;;;;5113191;28;19938;-49
2021/12/24 15:30:21;;;;;;;;;;;6.00;99.90;;;;;;5113087;28;19916;-46
2021/12/24 15:32:47;;;;;;;;;;;6.00;99.90;;;;;;5112978;28;19961;-47
2021/12/24 15:35:12;;;;;;;;;;;5.90;99.90;;;;;;5112997;28;19916;-46
2021/12/24 15:37:39;;;;;;;;;;;5.90;99.90;;;;;;5111301;28;19922;-46
2021/12/24 15:40:05;;;;;;;;;;;5.80;99.90;;;;;;5113088;28;19922;-50
2021/12/24 15:42:30;;;;;;;;;;;5.70;99.90;;;;;;5112952;28;19915;-50
2021/12/24 15:44:56;;;;;;;;;;;5.70;99.90;;;;;;5112870;28;19923;-50
2021/12/24 15:47:21;;;;;;;;;;;5.60;99.90;;;;;;5112842;28;19972;-48
2021/12/24 15:49:47;;;;;;;;;;;5.50;99.90;;;;;;5112951;28;20273;-48
2021/12/24 15:52:12;;;;;;;;;;;5.50;99.90;;;;;;5113331;28;20363;-49
2021/12/24 15:54:38;;;;;;;;;;;5.40;99.90;;;;;;5113217;28;20035;-51
2021/12/24 15:57:04;;;;;;;;;;;5.50;99.90;;;;;;5112936;28;20002;-49
2021/12/24 15:59:33;;;;;;;;;;;5.40;99.90;;;;;;5112982;28;20405;-48
2021/12/24 16:01:59;;;;;;;;;;;5.30;99.90;;;;;;5113140;28;19915;-48
2021/12/24 16:04:25;;;;;;;;;;;5.30;99.90;;;;;;5112658;28;20285;-47
2021/12/24 16:06:51;;;;;;;;;;;5.20;99.90;;;;;;5112506;28;19916;-47
2021/12/24 16:09:20;;;;;;;;;;;5.20;99.90;;;;;;5112731;28;19916;-49
2021/12/24 16:11:46;;;;;;;;;;;5.10;99.90;;;;;;5112459;28;20369;-48
2021/12/24 16:14:12;;;;;;;;;;;5.10;99.90;;;;;;5112858;28;19924;-48
2021/12/24 16:16:40;;;;;;;;;;;5.10;99.90;;;;;;5112461;28;19922;-46
2021/12/24 16:19:06;;;;;;;;;;;5.10;99.90;;;;;;5112431;28;19957;-49
2021/12/24 16:21:32;;;;;;;;;;;4.90;99.90;;;;;;5112792;28;19961;-46
2021/12/24 16:23:57;;;;;;;;;;;4.80;99.90;;;;;;5112308;28;20277;-50
2021/12/24 16:26:23;;;;;;;;;;;4.70;99.90;;;;;;5112449;28;19920;-48
2021/12/24 16:28:49;;;;;;;;;;;4.60;99.90;;;;;;5112438;28;19931;-45
2021/12/24 16:31:16;;;;;;;;;;;4.50;99.90;;;;;;5112837;28;19924;-48
2021/12/24 16:33:42;;;;;;;;;;;4.50;99.90;;;;;;5112737;28;19915;-50